Time;durP1;ratioP1;P1;durP2;ratioP2;P2;SDS_P1;SDS_P2;PMS_P1;PMS_P2;Temp;Humidity;BMP_temperature;BMP_pressure;BME280_temperature;BME280_humidity;BME280_pressure;Samples;Min_cycle;Max_cycle;Signal;HPM_P1;HPM_P2
2021/06/10 00:00:34;;;;;;;0.50;0.30;;;18.80;99.90;;;;;;5044161;28;20432;-83
2021/06/10 00:03:04;;;;;;;0.50;0.40;;;18.70;99.90;;;;;;5054384;28;20503;-82
2021/06/10 00:05:31;;;;;;;0.50;0.30;;;18.70;99.90;;;;;;5057518;28;20503;-83
2021/06/10 00:07:57;;;;;;;0.50;0.30;;;18.60;99.90;;;;;;5057195;28;20460;-83
2021/06/10 00:10:26;;;;;;;0.50;0.30;;;18.50;99.90;;;;;;5058080;28;20850;-82
2021/06/10 00:12:53;;;;;;;0.50;0.30;;;18.40;99.90;;;;;;5057751;28;20527;-82
2021/06/10 00:15:21;;;;;;;0.50;0.30;;;18.30;99.90;;;;;;5057896;28;20470;-83
2021/06/10 00:17:48;;;;;;;0.50;0.30;;;18.30;99.90;;;;;;5057616;28;20499;-82
2021/06/10 00:20:18;;;;;;;0.50;0.30;;;18.30;99.90;;;;;;5057717;28;20433;-83
2021/06/10 00:22:44;;;;;;;0.50;0.30;;;18.20;99.90;;;;;;5057935;28;20448;-82
2021/06/10 00:25:11;;;;;;;0.50;0.40;;;18.30;99.90;;;;;;5056852;28;20877;-82
2021/06/10 00:27:39;;;;;;;0.50;0.40;;;18.30;99.90;;;;;;5057156;28;20452;-82
2021/06/10 00:30:07;;;;;;;0.50;0.30;;;18.30;99.90;;;;;;5064848;28;20444;-82
2021/06/10 00:32:33;;;;;;;0.50;0.30;;;18.30;99.90;;;;;;5076938;28;20447;-82
2021/06/10 00:35:00;;;;;;;0.50;0.30;;;18.40;99.90;;;;;;5077214;28;20465;-82
2021/06/10 00:37:27;;;;;;;0.50;0.30;;;18.30;99.90;;;;;;5076974;28;20883;-82
2021/06/10 00:39:53;;;;;;;0.50;0.30;;;18.40;99.90;;;;;;5076965;28;20466;-82
2021/06/10 00:42:20;;;;;;;0.50;0.30;;;18.40;99.90;;;;;;5077029;28;20500;-82
2021/06/10 00:44:47;;;;;;;0.50;0.40;;;18.40;99.90;;;;;;5076831;28;20575;-81
2021/06/10 00:47:13;;;;;;;0.50;0.40;;;18.40;99.90;;;;;;5076374;28;20787;-82
2021/06/10 00:49:39;;;;;;;0.50;0.30;;;18.40;99.90;;;;;;5077101;28;20444;-81
2021/06/10 00:52:06;;;;;;;0.50;0.37;;;18.40;99.90;;;;;;5077080;28;20457;-82
2021/06/10 00:54:33;;;;;;;0.50;0.30;;;18.40;99.90;;;;;;5076905;28;20448;-82
2021/06/10 00:57:00;;;;;;;0.50;0.30;;;18.40;99.90;;;;;;5076631;28;20436;-82
2021/06/10 00:59:26;;;;;;;0.50;0.40;;;18.30;99.90;;;;;;5076329;28;20903;-82
2021/06/10 01:01:52;;;;;;;0.50;0.30;;;18.30;99.90;;;;;;5064328;28;20800;-82
2021/06/10 01:04:18;;;;;;;0.50;0.40;;;18.20;99.90;;;;;;5058703;28;21035;-82
2021/06/10 01:06:51;;;;;;;0.50;0.30;;;18.20;99.90;;;;;;5057588;28;20834;-80
2021/06/10 01:09:24;;;;;;;0.50;0.30;;;18.10;99.90;;;;;;5059672;28;20467;-82
2021/06/10 01:11:57;;;;;;;0.50;0.30;;;18.10;99.90;;;;;;5057841;28;20508;-82
2021/06/10 01:14:30;;;;;;;0.50;0.30;;;18.10;99.90;;;;;;5056746;28;20429;-82
2021/06/10 01:16:59;;;;;;;0.50;0.40;;;18.20;99.90;;;;;;5056496;28;20446;-81
2021/06/10 01:19:38;;;;;;;0.50;0.30;;;18.20;99.90;;;;;;5056892;28;20463;-81
2021/06/10 01:22:08;;;;;;;0.50;0.40;;;18.20;99.90;;;;;;5056570;28;20452;-81
2021/06/10 01:24:44;;;;;;;0.50;0.30;;;18.20;99.90;;;;;;5056149;28;20482;-81
2021/06/10 01:27:24;;;;;;;0.50;0.40;;;18.20;99.90;;;;;;5056130;28;20424;-82
2021/06/10 01:29:55;;;;;;;0.50;0.30;;;18.20;99.90;;;;;;5064784;28;20455;-82
2021/06/10 01:32:24;;;;;;;0.50;0.30;;;18.20;99.90;;;;;;5078167;28;20464;-81
2021/06/10 01:34:51;;;;;;;0.50;0.30;;;18.20;99.90;;;;;;5079387;28;20944;-82
2021/06/10 01:37:18;;;;;;;0.50;0.40;;;18.20;99.90;;;;;;5077448;28;20442;-82
2021/06/10 01:39:46;;;;;;;0.50;0.40;;;18.10;99.90;;;;;;5077871;28;20519;-81
2021/06/10 01:42:13;;;;;;;0.50;0.30;;;18.10;99.90;;;;;;5077254;28;20432;-81
2021/06/10 01:44:42;;;;;;;0.50;0.30;;;18.00;99.90;;;;;;5075063;28;20472;-81
2021/06/10 01:47:11;;;;;;;0.50;0.30;;;18.00;99.90;;;;;;5076197;28;20467;-82
2021/06/10 01:49:38;;;;;;;0.50;0.40;;;18.00;99.90;;;;;;5076157;28;20467;-81
2021/06/10 01:52:06;;;;;;;0.50;0.30;;;18.00;99.90;;;;;;5076861;28;20544;-80
2021/06/10 01:54:34;;;;;;;0.50;0.30;;;17.90;99.90;;;;;;5076837;28;20948;-82
2021/06/10 01:57:02;;;;;;;0.50;0.40;;;17.90;99.90;;;;;;5075851;28;20447;-82
2021/06/10 01:59:29;;;;;;;1.03;1.03;;;17.90;99.90;;;;;;5070059;28;20677;-82
2021/06/10 02:01:59;;;;;;;0.60;0.40;;;18.00;99.90;;;;;;5072367;28;20443;-82
2021/06/10 02:04:25;;;;;;;0.57;0.57;;;18.00;99.90;;;;;;5075351;28;20479;-82
2021/06/10 02:06:53;;;;;;;0.50;0.30;;;18.00;99.90;;;;;;5075707;28;20958;-81
2021/06/10 02:09:21;;;;;;;0.50;0.30;;;18.00;99.90;;;;;;5076038;28;20458;-82
2021/06/10 02:11:48;;;;;;;0.50;0.30;;;18.00;99.90;;;;;;5075317;28;20439;-79
2021/06/10 02:14:18;;;;;;;0.50;0.30;;;17.90;99.90;;;;;;5075259;28;20442;-81
2021/06/10 02:16:45;;;;;;;0.50;0.30;;;18.00;99.90;;;;;;5074968;28;20449;-79
2021/06/10 02:19:14;;;;;;;0.50;0.40;;;17.90;99.90;;;;;;5077489;28;20461;-80
2021/06/10 02:21:41;;;;;;;1.53;1.43;;;17.90;99.90;;;;;;5079685;28;20442;-81
2021/06/10 02:24:10;;;;;;;0.50;0.30;;;17.90;99.90;;;;;;5079550;28;20482;-82
2021/06/10 02:26:37;;;;;;;0.50;0.30;;;17.90;99.90;;;;;;5079387;28;20448;-78
2021/06/10 02:29:03;;;;;;;0.50;0.40;;;17.90;99.90;;;;;;5068715;28;20961;-79
2021/06/10 02:31:30;;;;;;;0.50;0.30;;;17.80;99.90;;;;;;5062376;28;20446;-80
2021/06/10 02:33:56;;;;;;;0.50;0.37;;;17.80;99.90;;;;;;5078893;28;20465;-82
2021/06/10 02:36:24;;;;;;;0.50;0.30;;;17.70;99.90;;;;;;5078673;28;20438;-81
2021/06/10 02:38:53;;;;;;;0.50;0.30;;;17.70;99.90;;;;;;5079355;28;20460;-81
2021/06/10 02:41:24;;;;;;;0.50;0.30;;;17.60;99.90;;;;;;5079829;28;20443;-82
2021/06/10 02:43:52;;;;;;;0.50;0.30;;;17.60;99.90;;;;;;5078726;28;20478;-82
2021/06/10 02:46:18;;;;;;;0.50;0.30;;;17.50;99.90;;;;;;5078542;28;20801;-82
2021/06/10 02:48:46;;;;;;;0.50;0.40;;;17.50;99.90;;;;;;5078690;28;20455;-81
2021/06/10 02:51:13;;;;;;;0.50;0.33;;;17.40;99.90;;;;;;5079681;28;20469;-81
2021/06/10 02:53:44;;;;;;;0.50;0.40;;;17.40;99.90;;;;;;5079325;28;20432;-81
2021/06/10 02:56:11;;;;;;;0.50;0.40;;;17.30;99.90;;;;;;5078799;28;20956;-81
2021/06/10 02:58:40;;;;;;;0.50;0.30;;;17.30;99.90;;;;;;5077115;28;20485;-79
2021/06/10 03:01:07;;;;;;;0.50;0.33;;;17.30;99.90;;;;;;5071498;28;20436;-77
2021/06/10 03:03:35;;;;;;;0.50;0.40;;;17.30;99.90;;;;;;5081709;28;20440;-80
2021/06/10 03:06:03;;;;;;;0.50;0.30;;;17.20;99.90;;;;;;5078890;28;20438;-77
2021/06/10 03:08:30;;;;;;;0.50;0.30;;;17.20;99.90;;;;;;5077865;28;20460;-78
2021/06/10 03:11:00;;;;;;;0.50;0.30;;;17.20;99.90;;;;;;5077746;28;20440;-78
2021/06/10 03:13:29;;;;;;;0.50;0.30;;;17.20;99.90;;;;;;5077561;28;20430;-78
2021/06/10 03:15:57;;;;;;;0.50;0.30;;;17.20;99.90;;;;;;5076948;28;20446;-78
2021/06/10 03:18:24;;;;;;;0.50;0.30;;;17.20;99.90;;;;;;5077327;28;20448;-78
2021/06/10 03:20:51;;;;;;;0.50;0.33;;;17.20;99.90;;;;;;5076826;28;20797;-79
2021/06/10 03:23:17;;;;;;;0.50;0.30;;;17.10;99.90;;;;;;5076379;28;20427;-78
2021/06/10 03:25:44;;;;;;;0.50;0.40;;;17.10;99.90;;;;;;5076030;28;20475;-79
2021/06/10 03:28:12;;;;;;;0.50;0.30;;;17.00;99.90;;;;;;5073115;28;20454;-79
2021/06/10 03:30:38;;;;;;;0.50;0.30;;;17.10;99.90;;;;;;5063520;28;20427;-78
2021/06/10 03:33:07;;;;;;;0.50;0.40;;;17.10;99.90;;;;;;5056448;28;20452;-78
2021/06/10 03:35:35;;;;;;;0.50;0.40;;;17.10;99.90;;;;;;5055273;28;20433;-78
2021/06/10 03:38:02;;;;;;;0.50;0.40;;;17.10;99.90;;;;;;5055797;28;20493;-80
2021/06/10 03:40:29;;;;;;;0.50;0.40;;;17.10;99.90;;;;;;5056134;28;20831;-79
2021/06/10 03:42:56;;;;;;;0.70;0.67;;;17.10;99.90;;;;;;5056045;28;20928;-79
2021/06/10 03:45:24;;;;;;;0.50;0.30;;;17.20;99.90;;;;;;5055838;28;20478;-79
2021/06/10 03:47:51;;;;;;;0.50;0.50;;;17.20;99.90;;;;;;5055652;28;20437;-79
2021/06/10 03:50:17;;;;;;;0.50;0.37;;;17.20;99.90;;;;;;5056232;28;20443;-79
2021/06/10 03:52:44;;;;;;;0.50;0.37;;;17.20;99.90;;;;;;5055964;28;20781;-80
2021/06/10 03:55:12;;;;;;;0.50;0.37;;;17.20;99.90;;;;;;5056690;28;20439;-78
2021/06/10 03:57:38;;;;;;;0.50;0.40;;;17.20;99.90;;;;;;5056790;28;20456;-79
2021/06/10 04:00:06;;;;;;;0.50;0.30;;;17.20;99.90;;;;;;5063785;28;20930;-78
2021/06/10 04:02:34;;;;;;;0.50;0.30;;;17.30;99.90;;;;;;5076858;28;20432;-78
2021/06/10 04:05:00;;;;;;;0.50;0.30;;;17.30;99.90;;;;;;5075693;28;20468;-79
2021/06/10 04:07:27;;;;;;;0.50;0.40;;;17.30;99.90;;;;;;5074962;28;20498;-78
2021/06/10 04:09:53;;;;;;;0.50;0.40;;;17.40;99.90;;;;;;5075378;28;20468;-79
2021/06/10 04:12:20;;;;;;;0.50;0.30;;;17.40;99.90;;;;;;5075940;28;20451;-78
2021/06/10 04:14:46;;;;;;;0.50;0.40;;;17.40;99.90;;;;;;5075445;28;20442;-77
2021/06/10 04:17:12;;;;;;;0.50;0.40;;;17.50;99.90;;;;;;5075220;28;20440;-78
2021/06/10 04:19:40;;;;;;;0.50;0.40;;;17.50;99.90;;;;;;5074926;28;20446;-78
2021/06/10 04:22:06;;;;;;;0.50;0.40;;;17.60;99.90;;;;;;5073755;28;20442;-77
2021/06/10 04:24:32;;;;;;;0.50;0.40;;;17.60;99.90;;;;;;5073117;28;20476;-78
2021/06/10 04:27:00;;;;;;;0.50;0.30;;;17.70;99.90;;;;;;5072462;28;20448;-78
2021/06/10 04:29:27;;;;;;;0.50;0.40;;;17.70;99.90;;;;;;5067014;28;20469;-78
2021/06/10 04:31:53;;;;;;;0.50;0.30;;;17.80;99.90;;;;;;5068063;28;20439;-78
2021/06/10 04:34:19;;;;;;;0.50;0.37;;;17.90;99.90;;;;;;5072216;28;20786;-78
2021/06/10 04:36:47;;;;;;;0.60;0.50;;;17.90;99.90;;;;;;5072650;28;20443;-77
2021/06/10 04:39:14;;;;;;;0.63;0.60;;;18.00;99.90;;;;;;5072534;28;20462;-78
2021/06/10 04:41:40;;;;;;;1.27;1.17;;;18.00;99.90;;;;;;5072285;28;20448;-75
2021/06/10 04:44:06;;;;;;;0.50;0.40;;;18.10;99.90;;;;;;5073211;28;20502;-79
2021/06/10 05:22:05;;;;;;;2.20;0.93;;;18.10;99.90;;;;;;5171817;27;20516;-79
2021/06/10 05:24:31;;;;;;;0.80;0.40;;;18.10;99.90;;;;;;5158100;27;20426;-80
2021/06/10 05:26:57;;;;;;;1.40;1.30;;;18.40;99.90;;;;;;5154337;27;20440;-78
2021/06/10 05:29:23;;;;;;;0.60;0.57;;;18.60;99.90;;;;;;5148666;27;20460;-77
2021/06/10 05:31:50;;;;;;;0.50;0.33;;;18.80;99.90;;;;;;5150657;27;20438;-77
2021/06/10 05:34:16;;;;;;;0.50;0.30;;;18.90;99.90;;;;;;5152018;27;20444;-79
2021/06/10 05:36:42;;;;;;;0.50;0.40;;;19.00;99.90;;;;;;5151892;27;20431;-78
2021/06/10 05:39:10;;;;;;;0.50;0.40;;;19.20;99.90;;;;;;5153216;27;20460;-78
2021/06/10 05:41:36;;;;;;;0.50;0.40;;;19.20;99.90;;;;;;5152374;27;20471;-78
2021/06/10 05:44:03;;;;;;;0.50;0.40;;;19.30;99.90;;;;;;5153031;27;20443;-78
2021/06/10 05:46:29;;;;;;;0.50;0.40;;;19.40;99.90;;;;;;5153748;27;20438;-79
2021/06/10 05:48:55;;;;;;;0.50;0.40;;;19.50;99.90;;;;;;5153369;27;20456;-79
2021/06/10 05:51:22;;;;;;;0.50;0.40;;;19.60;99.90;;;;;;5153949;27;20427;-79
2021/06/10 05:53:48;;;;;;;0.50;0.30;;;19.70;99.90;;;;;;5153267;27;20447;-80
2021/06/10 05:56:15;;;;;;;0.50;0.40;;;19.80;99.90;;;;;;5153251;27;20466;-79
2021/06/10 05:58:42;;;;;;;0.50;0.30;;;20.00;99.90;;;;;;5158818;22;20444;-77
2021/06/10 06:01:08;;;;;;;0.50;0.30;;;20.10;99.90;;;;;;5046436;28;20465;-80
2021/06/10 06:03:34;;;;;;;0.50;0.30;;;20.20;99.90;;;;;;5046165;28;20436;-77
2021/06/10 06:06:00;;;;;;;0.60;0.50;;;20.40;99.90;;;;;;5046921;28;20452;-78
2021/06/10 06:08:26;;;;;;;0.50;0.30;;;20.50;99.90;;;;;;5046470;28;20437;-77
2021/06/10 06:10:53;;;;;;;0.50;0.40;;;20.70;99.90;;;;;;5047037;28;20439;-77
2021/06/10 06:13:23;;;;;;;0.50;0.40;;;20.80;99.90;;;;;;5046372;28;20441;-76
2021/06/10 06:15:58;;;;;;;2.43;2.30;;;20.90;99.90;;;;;;5046725;28;20753;-76
2021/06/10 06:18:24;;;;;;;0.50;0.40;;;20.90;99.90;;;;;;5047090;28;20463;-76
2021/06/10 06:20:53;;;;;;;0.50;0.30;;;21.20;99.90;;;;;;5047308;28;20905;-78
2021/06/10 06:23:19;;;;;;;2.83;2.73;;;21.80;99.90;;;;;;5047479;28;20515;-77
2021/06/10 06:25:45;;;;;;;0.50;0.40;;;22.00;99.90;;;;;;5047254;28;20437;-77
2021/06/10 06:28:11;;;;;;;0.50;0.40;;;22.00;99.90;;;;;;5046783;28;20432;-78
2021/06/10 06:30:39;;;;;;;3.90;1.03;;;22.00;99.90;;;;;;5047068;28;20449;-77
2021/06/10 06:33:05;;;;;;;0.50;0.30;;;21.90;99.90;;;;;;5035939;28;20537;-77
2021/06/10 06:35:31;;;;;;;0.50;0.40;;;22.10;99.90;;;;;;5034174;28;20438;-78
2021/06/10 06:37:58;;;;;;;0.50;0.40;;;22.70;99.90;;;;;;5033207;28;20796;-78
2021/06/10 06:40:26;;;;;;;0.50;0.40;;;22.90;99.90;;;;;;5034053;28;20843;-77
2021/06/10 06:42:52;;;;;;;0.50;0.40;;;23.00;99.90;;;;;;5033992;28;20469;-78
2021/06/10 06:45:19;;;;;;;3.23;0.83;;;23.00;99.90;;;;;;5015639;28;20526;-79
2021/06/10 06:47:46;;;;;;;1.33;1.27;;;22.80;99.90;;;;;;5031489;28;20446;-79
2021/06/10 06:50:13;;;;;;;0.50;0.50;;;22.80;99.90;;;;;;5031820;28;20468;-80
2021/06/10 06:52:39;;;;;;;0.50;0.40;;;23.10;99.90;;;;;;5013956;28;20443;-77
2021/06/10 06:55:06;;;;;;;0.50;0.30;;;23.70;99.90;;;;;;5014660;28;20827;-78
2021/06/10 06:57:32;;;;;;;0.50;0.33;;;24.70;99.90;;;;;;5014401;28;20439;-77
2021/06/10 06:59:58;;;;;;;0.60;0.40;;;25.90;99.90;;;;;;5021182;28;20473;-79
2021/06/10 07:02:24;;;;;;;0.50;0.30;;;26.80;99.90;;;;;;5031208;28;20991;-78
2021/06/10 07:04:54;;;;;;;0.50;0.30;;;26.60;99.90;;;;;;5013596;28;20476;-76
2021/06/10 07:07:20;;;;;;;0.50;0.30;;;26.40;99.90;;;;;;5012937;28;20536;-76
2021/06/10 07:09:46;;;;;;;0.50;0.30;;;26.00;99.90;;;;;;5013371;28;21031;-75
2021/06/10 07:12:12;;;;;;;0.70;0.60;;;26.00;99.90;;;;;;5013906;28;20449;-76
2021/06/10 07:14:38;;;;;;;0.50;0.30;;;25.80;99.90;;;;;;5013515;28;20443;-75
2021/06/10 07:17:05;;;;;;;0.50;0.30;;;25.60;99.90;;;;;;5013015;28;20948;-76
2021/06/10 07:19:31;;;;;;;0.50;0.30;;;25.60;99.90;;;;;;5014310;28;20478;-75
2021/06/10 07:21:59;;;;;;;0.50;0.30;;;25.60;99.90;;;;;;5013871;28;20486;-76
2021/06/10 07:24:25;;;;;;;0.50;0.30;;;25.50;99.90;;;;;;5013275;28;20442;-76
2021/06/10 07:26:51;;;;;;;0.60;0.60;;;25.50;99.90;;;;;;5013337;28;20447;-77
2021/06/10 07:29:18;;;;;;;0.50;0.30;;;25.30;99.90;;;;;;5014725;28;20551;-77
2021/06/10 07:31:45;;;;;;;0.50;0.30;;;25.10;99.90;;;;;;5033535;28;20441;-76
2021/06/10 07:34:12;;;;;;;1.67;0.93;;;25.00;99.90;;;;;;5033243;28;20441;-76
2021/06/10 07:36:39;;;;;;;1.57;1.47;;;25.00;99.90;;;;;;5032490;28;21118;-76
2021/06/10 07:39:08;;;;;;;0.73;0.73;;;25.00;99.90;;;;;;5029589;28;20459;-75
2021/06/10 07:41:35;;;;;;;0.50;0.30;;;24.90;99.90;;;;;;5013778;28;20466;-76
2021/06/10 07:44:02;;;;;;;0.80;0.80;;;24.70;99.90;;;;;;5012264;28;20986;-76
2021/06/10 07:46:28;;;;;;;0.50;0.30;;;24.70;99.90;;;;;;5012668;28;20454;-77
2021/06/10 07:48:54;;;;;;;0.50;0.30;;;24.80;99.90;;;;;;5013181;28;20455;-77
2021/06/10 07:51:20;;;;;;;4.10;3.60;;;24.70;99.90;;;;;;5013545;28;20446;-78
2021/06/10 07:53:47;;;;;;;0.50;0.30;;;24.60;99.90;;;;;;5012969;28;20443;-76
2021/06/10 07:56:15;;;;;;;0.50;0.33;;;24.60;99.90;;;;;;5013388;28;20500;-76
2021/06/10 07:58:41;;;;;;;0.50;0.30;;;24.70;99.90;;;;;;5013510;28;20462;-76
2021/06/10 08:01:07;;;;;;;0.50;0.30;;;24.90;99.90;;;;;;5031665;28;20482;-78
2021/06/10 08:03:34;;;;;;;0.50;0.40;;;25.00;99.90;;;;;;5032440;28;20447;-76
2021/06/10 08:06:01;;;;;;;0.50;0.30;;;25.00;99.90;;;;;;5032794;28;20437;-77
2021/06/10 08:08:27;;;;;;;0.50;0.40;;;25.00;99.90;;;;;;5031724;28;20525;-77
2021/06/10 08:10:56;;;;;;;0.50;0.30;;;25.00;99.90;;;;;;5032677;28;20439;-78
2021/06/10 08:13:24;;;;;;;0.50;0.30;;;25.10;99.90;;;;;;5032678;28;20484;-76
2021/06/10 08:15:51;;;;;;;0.50;0.30;;;25.00;99.90;;;;;;5031740;28;20442;-76
2021/06/10 08:18:17;;;;;;;0.50;0.30;;;25.60;99.90;;;;;;5032126;28;20443;-75
2021/06/10 08:20:43;;;;;;;0.50;0.30;;;26.00;99.90;;;;;;5032391;28;20478;-77
2021/06/10 08:23:10;;;;;;;0.50;0.30;;;26.00;99.90;;;;;;5031890;28;20459;-77
2021/06/10 08:25:42;;;;;;;0.50;0.30;;;25.80;99.90;;;;;;5015669;28;20802;-76
2021/06/10 08:28:09;;;;;;;0.50;0.30;;;25.80;99.90;;;;;;5012298;28;20442;-77
2021/06/10 08:30:37;;;;;;;0.50;0.40;;;25.90;99.90;;;;;;5027869;28;20461;-78
2021/06/10 08:33:03;;;;;;;0.60;0.47;;;26.40;99.90;;;;;;5031399;28;20448;-77
2021/06/10 08:35:29;;;;;;;0.50;0.40;;;26.90;99.90;;;;;;5031515;28;20940;-77
2021/06/10 08:37:56;;;;;;;0.50;0.30;;;26.50;99.90;;;;;;5031767;28;20961;-78
2021/06/10 08:40:23;;;;;;;0.60;0.57;;;26.30;99.90;;;;;;5017800;28;20489;-77
2021/06/10 08:42:49;;;;;;;0.50;0.30;;;26.60;99.90;;;;;;5012262;28;20557;-76
2021/06/10 08:45:18;;;;;;;0.50;0.40;;;27.50;99.90;;;;;;5012094;28;20449;-77
2021/06/10 08:47:48;;;;;;;0.50;0.30;;;28.30;99.90;;;;;;5011563;28;20439;-78
2021/06/10 08:50:18;;;;;;;0.50;0.30;;;28.70;97.70;;;;;;5012382;28;20459;-77
2021/06/10 08:52:45;;;;;;;0.50;0.30;;;28.70;96.40;;;;;;5013477;28;20431;-77
2021/06/10 08:55:13;;;;;;;0.50;0.30;;;28.30;95.20;;;;;;5013313;28;20439;-75
2021/06/10 08:57:39;;;;;;;0.50;0.30;;;27.80;95.40;;;;;;5013215;28;20458;-77
2021/06/10 09:00:08;;;;;;;0.50;0.30;;;27.50;98.10;;;;;;5023560;28;20470;-77
2021/06/10 09:02:34;;;;;;;0.50;0.30;;;27.10;96.80;;;;;;5029654;28;20445;-76
2021/06/10 09:05:04;;;;;;;0.50;0.50;;;26.80;97.80;;;;;;5031688;28;20488;-77
2021/06/10 09:07:34;;;;;;;0.50;0.30;;;26.60;98.70;;;;;;5031865;28;20827;-77
2021/06/10 09:10:02;;;;;;;0.50;0.30;;;26.40;99.90;;;;;;5036228;28;20461;-77
2021/06/10 09:12:28;;;;;;;0.50;0.30;;;26.40;99.90;;;;;;5031530;28;20940;-75
2021/06/10 09:14:57;;;;;;;0.50;0.30;;;26.70;99.90;;;;;;5031304;28;20445;-78
2021/06/10 09:17:31;;;;;;;0.50;0.30;;;27.20;99.50;;;;;;5030767;28;20535;-78
2021/06/10 09:19:58;;;;;;;0.50;0.30;;;27.40;99.90;;;;;;5031184;28;20796;-78
2021/06/10 09:22:29;;;;;;;2.00;1.80;;;27.50;99.30;;;;;;5031072;28;20474;-76
2021/06/10 09:25:07;;;;;;;0.60;0.50;;;27.10;98.40;;;;;;5020061;28;20451;-78
2021/06/10 09:27:34;;;;;;;0.50;0.30;;;26.50;99.90;;;;;;5004082;28;20932;-75
2021/06/10 09:30:01;;;;;;;0.50;0.30;;;26.30;99.90;;;;;;5022096;28;20468;-78
2021/06/10 09:32:30;;;;;;;0.50;0.40;;;26.50;99.90;;;;;;5030730;28;20434;-76
2021/06/10 09:34:58;;;;;;;0.50;0.40;;;26.80;99.90;;;;;;5031677;28;20951;-76
2021/06/10 09:37:33;;;;;;;0.50;0.40;;;26.60;98.70;;;;;;5030956;28;20963;-77
2021/06/10 09:40:01;;;;;;;0.50;0.40;;;26.40;99.60;;;;;;5031225;28;20538;-78
2021/06/10 09:42:30;;;;;;;0.50;0.37;;;26.10;99.90;;;;;;5031210;28;20477;-75
2021/06/10 09:44:59;;;;;;;0.50;0.43;;;25.80;99.90;;;;;;5031108;28;20450;-74
2021/06/10 09:47:32;;;;;;;0.90;0.90;;;25.50;99.90;;;;;;5031033;28;20453;-77
2021/06/10 09:50:12;;;;;;;2.70;2.50;;;25.50;99.90;;;;;;5031421;28;20489;-78
2021/06/10 09:52:46;;;;;;;0.63;0.63;;;25.50;99.90;;;;;;5030730;28;20824;-77
2021/06/10 09:55:33;;;;;;;0.50;0.43;;;25.50;99.90;;;;;;5031168;28;20495;-80
2021/06/10 09:58:22;;;;;;;0.83;0.50;;;25.70;99.90;;;;;;5030950;28;20481;-78
2021/06/10 10:00:53;;;;;;;5.90;2.50;;;26.00;99.90;;;;;;5030613;28;20555;-77
2021/06/10 10:03:32;;;;;;;0.50;0.50;;;26.20;99.90;;;;;;5031169;28;20508;-78
2021/06/10 10:06:01;;;;;;;0.50;0.30;;;26.40;99.90;;;;;;5031161;28;20438;-78
2021/06/10 10:08:30;;;;;;;0.50;0.30;;;26.80;99.90;;;;;;5033568;28;20808;-77
2021/06/10 10:10:58;;;;;;;0.50;0.30;;;26.90;99.90;;;;;;5035171;28;20449;-77
2021/06/10 10:13:25;;;;;;;0.50;0.30;;;27.20;99.90;;;;;;5035252;28;20442;-79
2021/06/10 10:15:51;;;;;;;0.83;0.83;;;27.70;99.90;;;;;;5034663;28;20449;-77
2021/06/10 10:18:18;;;;;;;1.13;0.60;;;28.00;98.70;;;;;;5035103;28;20449;-78
2021/06/10 10:20:46;;;;;;;0.50;0.40;;;28.30;96.00;;;;;;5035098;28;20480;-76
2021/06/10 10:23:12;;;;;;;0.50;0.30;;;28.00;96.00;;;;;;5035078;28;20508;-81
2021/06/10 10:25:40;;;;;;;0.50;0.40;;;27.70;98.20;;;;;;5017625;28;20439;-81
2021/06/10 10:28:09;;;;;;;0.50;0.30;;;27.10;94.40;;;;;;5014623;28;20438;-79
2021/06/10 10:30:36;;;;;;;0.50;0.30;;;26.70;95.60;;;;;;5030690;28;20450;-77
2021/06/10 10:33:13;;;;;;;0.50;0.40;;;26.70;96.60;;;;;;5034762;28;20568;-78
2021/06/10 10:35:48;;;;;;;0.50;0.30;;;26.70;98.90;;;;;;5034815;28;20434;-79
2021/06/10 10:38:15;;;;;;;0.50;0.40;;;27.00;98.40;;;;;;5035254;28;20920;-79
2021/06/10 10:40:52;;;;;;;0.50;0.30;;;27.20;96.30;;;;;;5034114;28;20482;-79
2021/06/10 10:43:19;;;;;;;0.50;0.30;;;27.30;94.50;;;;;;5035537;28;20433;-79
2021/06/10 10:45:50;;;;;;;0.77;0.77;;;27.40;95.70;;;;;;5033528;28;20438;-80
2021/06/10 10:48:31;;;;;;;0.50;0.30;;;27.40;94.90;;;;;;5035354;28;20423;-79
2021/06/10 10:50:57;;;;;;;0.50;0.40;;;27.40;94.70;;;;;;5035413;28;20429;-78
2021/06/10 10:53:26;;;;;;;0.50;0.30;;;27.60;94.20;;;;;;5033686;28;20438;-80
2021/06/10 10:56:05;;;;;;;0.50;0.30;;;27.30;92.60;;;;;;5034204;28;20442;-80
2021/06/10 10:58:32;;;;;;;0.50;0.30;;;27.10;94.00;;;;;;5034686;28;20921;-77
2021/06/10 11:00:59;;;;;;;0.50;0.40;;;27.10;92.70;;;;;;5033730;28;21049;-81
2021/06/10 11:03:32;;;;;;;0.50;0.30;;;27.10;93.20;;;;;;5033913;28;20446;-78
2021/06/10 11:06:01;;;;;;;0.50;0.40;;;27.00;94.00;;;;;;5034559;28;20430;-79
2021/06/10 11:09:07;;;;;;;0.50;0.30;;;27.20;94.50;;;;;;5033645;28;20592;-79
2021/06/10 11:11:51;;;;;;;0.53;0.47;;;27.30;93.80;;;;;;5034222;28;20532;-81
2021/06/10 11:14:40;;;;;;;1.50;1.40;;;27.20;91.50;;;;;;5033418;28;20438;-79
2021/06/10 11:17:25;;;;;;;0.50;0.30;;;27.40;92.00;;;;;;5033801;28;20459;-77
2021/06/10 11:20:01;;;;;;;0.50;0.30;;;27.60;92.90;;;;;;5023921;28;21024;-77
2021/06/10 11:22:33;;;;;;;0.50;0.30;;;27.50;91.20;;;;;;5011717;28;20484;-77
2021/06/10 11:25:00;;;;;;;0.50;0.30;;;27.40;92.00;;;;;;5014274;28;20422;-78
2021/06/10 11:27:36;;;;;;;0.50;0.30;;;27.40;92.40;;;;;;5014098;28;20442;-80
2021/06/10 11:30:26;;;;;;;0.50;0.40;;;27.50;92.30;;;;;;5021774;28;20539;-78
2021/06/10 11:33:07;;;;;;;0.60;0.50;;;27.70;91.10;;;;;;5023552;28;20440;-78
2021/06/10 11:35:39;;;;;;;0.50;0.40;;;27.90;88.00;;;;;;5033881;28;20442;-77
2021/06/10 11:38:11;;;;;;;0.50;0.30;;;28.00;84.40;;;;;;5034035;28;20540;-79
2021/06/10 11:40:38;;;;;;;1.83;1.73;;;28.20;88.60;;;;;;5014519;28;20490;-76
2021/06/10 11:43:06;;;;;;;0.50;0.30;;;28.60;91.10;;;;;;5013944;28;20454;-79
2021/06/10 11:45:33;;;;;;;0.50;0.30;;;28.80;89.10;;;;;;5013934;28;20443;-77
2021/06/10 11:47:59;;;;;;;0.50;0.30;;;28.80;86.20;;;;;;5014097;28;20967;-78
2021/06/10 11:50:29;;;;;;;0.50;0.30;;;29.10;85.50;;;;;;5014136;28;20493;-77
2021/06/10 11:52:59;;;;;;;0.50;0.30;;;29.10;81.70;;;;;;5013542;28;20435;-79
2021/06/10 11:55:29;;;;;;;0.50;0.40;;;29.30;81.60;;;;;;5014375;28;20859;-78
2021/06/10 11:58:01;;;;;;;0.50;0.40;;;29.50;79.00;;;;;;5013477;28;20562;-78
2021/06/10 12:00:35;;;;;;;0.67;0.60;;;29.50;79.40;;;;;;5022790;28;20470;-77
2021/06/10 12:03:03;;;;;;;0.50;0.30;;;29.30;79.70;;;;;;5032480;28;20928;-79
2021/06/10 12:05:32;;;;;;;0.50;0.40;;;29.30;80.60;;;;;;5033781;28;20473;-78
2021/06/10 12:08:09;;;;;;;0.50;0.40;;;29.40;76.10;;;;;;5033427;28;20450;-81
2021/06/10 12:10:36;;;;;;;0.50;0.30;;;29.50;76.70;;;;;;5032532;28;20457;-78
2021/06/10 12:13:03;;;;;;;0.50;0.30;;;29.50;71.70;;;;;;5032443;28;20426;-80
2021/06/10 12:15:44;;;;;;;0.50;0.30;;;29.60;72.60;;;;;;5026936;28;20446;-79
2021/06/10 12:18:12;;;;;;;0.50;0.30;;;30.40;74.80;;;;;;5012617;28;20427;-77
2021/06/10 12:20:41;;;;;;;0.50;0.40;;;31.90;71.00;;;;;;5012782;28;20924;-77
2021/06/10 12:23:15;;;;;;;0.50;0.30;;;32.50;64.90;;;;;;5013125;28;20434;-76
2021/06/10 12:25:41;;;;;;;0.50;0.30;;;32.70;66.80;;;;;;5012946;28;20865;-78
2021/06/10 12:28:08;;;;;;;0.40;0.30;;;33.30;64.50;;;;;;5013383;28;20447;-80
2021/06/10 12:30:37;;;;;;;0.40;0.40;;;33.60;64.80;;;;;;5028712;28;20465;-82
2021/06/10 12:33:17;;;;;;;1.70;0.50;;;33.80;62.40;;;;;;5032673;28;20492;-78
2021/06/10 12:35:45;;;;;;;0.50;0.37;;;32.90;65.30;;;;;;5033646;28;20425;-78
2021/06/10 12:38:13;;;;;;;0.90;0.90;;;32.30;68.70;;;;;;5032819;28;20442;-78
2021/06/10 12:40:41;;;;;;;0.50;0.40;;;31.80;67.00;;;;;;5032999;28;20467;-78
2021/06/10 12:43:12;;;;;;;0.80;0.80;;;31.90;68.20;;;;;;5033083;28;20438;-78
2021/06/10 12:45:40;;;;;;;0.50;0.30;;;32.00;70.10;;;;;;5032618;28;20823;-79
2021/06/10 12:48:25;;;;;;;0.50;0.30;;;32.10;71.50;;;;;;5032698;28;20895;-79
2021/06/10 12:51:07;;;;;;;0.50;0.30;;;31.60;70.40;;;;;;5033061;28;20489;-79
2021/06/10 12:53:34;;;;;;;0.90;0.70;;;31.20;69.30;;;;;;5031774;28;20441;-80
2021/06/10 12:56:08;;;;;;;0.50;0.30;;;31.20;70.40;;;;;;5032993;28;20945;-79
2021/06/10 12:58:35;;;;;;;0.70;0.70;;;30.60;70.40;;;;;;5032347;28;20819;-79
2021/06/10 13:01:08;;;;;;;0.50;0.30;;;30.20;72.40;;;;;;5020683;28;20442;-77
2021/06/10 13:03:49;;;;;;;0.50;0.30;;;29.80;73.90;;;;;;5020353;28;20450;-77
2021/06/10 13:06:16;;;;;;;0.50;0.30;;;29.60;75.60;;;;;;5012810;28;20414;-77
2021/06/10 13:08:43;;;;;;;0.50;0.30;;;29.90;74.80;;;;;;5012451;28;20501;-78
2021/06/10 13:11:15;;;;;;;0.50;0.30;;;30.50;70.90;;;;;;5011930;28;21078;-78
2021/06/10 13:13:42;;;;;;;0.50;0.30;;;31.00;69.70;;;;;;5012187;28;20435;-79
2021/06/10 13:16:08;;;;;;;0.50;0.30;;;31.60;69.10;;;;;;5011434;28;20438;-79
2021/06/10 13:18:36;;;;;;;0.50;0.30;;;31.80;66.90;;;;;;5011706;28;20947;-79
2021/06/10 13:21:05;;;;;;;0.50;0.30;;;32.10;67.60;;;;;;5011418;28;20434;-78
2021/06/10 13:23:43;;;;;;;0.50;0.30;;;32.70;67.30;;;;;;5011885;28;20439;-75
2021/06/10 13:26:15;;;;;;;0.40;0.30;;;33.40;67.60;;;;;;5011913;28;20789;-79
2021/06/10 13:28:43;;;;;;;0.40;0.30;;;33.80;63.70;;;;;;5012359;28;20434;-77
2021/06/10 13:31:18;;;;;;;0.40;0.30;;;33.80;61.30;;;;;;5031212;28;20469;-80